Time;durP1;ratioP1;P1;durP2;ratioP2;P2;SDS_P1;SDS_P2;PMS_P1;PMS_P2;Temp;Humidity;BMP_temperature;BMP_pressure;BME280_temperature;BME280_humidity;BME280_pressure;Samples;Min_cycle;Max_cycle;Signal;HPM_P1;HPM_P2
2022/04/08 00:02:01;;;;;;;2.43;0.90;;;9.30;99.90;;;;;;4915899;29;20803;-72
2022/04/08 00:04:26;;;;;;;7.93;1.40;;;9.20;99.90;;;;;;4917511;29;20642;-72
2022/04/08 00:06:52;;;;;;;7.90;1.37;;;9.20;99.90;;;;;;4917223;29;20187;-72
2022/04/08 00:09:17;;;;;;;5.47;1.57;;;9.20;99.90;;;;;;4917032;29;20208;-72
2022/04/08 00:11:43;;;;;;;7.93;1.00;;;9.20;99.90;;;;;;4916750;29;20224;-72
2022/04/08 00:14:08;;;;;;;4.80;1.53;;;9.20;99.90;;;;;;4918729;29;20183;-72
2022/04/08 00:16:34;;;;;;;5.43;0.83;;;9.20;99.90;;;;;;4919016;29;20214;-72
2022/04/08 00:18:59;;;;;;;1.40;0.70;;;9.20;99.90;;;;;;4917949;29;20266;-72
2022/04/08 00:21:25;;;;;;;10.43;1.33;;;9.20;99.90;;;;;;4918642;29;20190;-72
2022/04/08 00:23:52;;;;;;;2.50;0.90;;;9.20;99.90;;;;;;4918853;29;20279;-72
2022/04/08 00:26:17;;;;;;;2.90;1.00;;;9.20;99.90;;;;;;4918695;29;20620;-72
2022/04/08 00:28:43;;;;;;;3.43;0.90;;;9.20;99.90;;;;;;4918960;29;20422;-72
2022/04/08 00:31:08;;;;;;;3.23;0.83;;;9.20;99.90;;;;;;4916870;29;20224;-72
2022/04/08 00:33:34;;;;;;;4.23;0.90;;;9.20;99.90;;;;;;4918798;29;20202;-73
2022/04/08 00:36:00;;;;;;;2.30;0.80;;;9.20;99.90;;;;;;4918446;29;20220;-73
2022/04/08 00:38:25;;;;;;;2.77;1.13;;;9.20;99.90;;;;;;4918705;29;20174;-72
2022/04/08 00:40:51;;;;;;;1.23;0.93;;;9.20;99.90;;;;;;4918100;29;20590;-72
2022/04/08 00:43:19;;;;;;;3.30;1.23;;;9.20;99.90;;;;;;4918477;29;20561;-73
2022/04/08 00:45:45;;;;;;;6.73;1.17;;;9.20;99.90;;;;;;4918484;29;20175;-72
2022/04/08 00:48:11;;;;;;;4.10;1.30;;;9.20;99.90;;;;;;4918270;29;20993;-72
2022/04/08 00:50:43;;;;;;;5.37;1.07;;;9.20;99.90;;;;;;4918000;29;20790;-72
2022/04/08 00:53:09;;;;;;;6.83;1.03;;;9.10;99.90;;;;;;4918891;29;20464;-72
2022/04/08 00:55:36;;;;;;;1.97;1.00;;;9.10;99.90;;;;;;4920968;29;20920;-73
2022/04/08 00:58:03;;;;;;;15.33;1.20;;;9.20;99.90;;;;;;4920067;29;20594;-73
2022/04/08 02:31:05;;;;;;;3.30;1.20;;;8.40;99.90;;;;;;5823146;23;20496;-72
2022/04/08 02:33:31;;;;;;;4.47;0.90;;;8.40;99.90;;;;;;4962107;28;20421;-73
2022/04/08 02:35:57;;;;;;;6.50;1.10;;;8.30;99.90;;;;;;4973303;28;20314;-73
2022/04/08 02:38:23;;;;;;;6.23;0.90;;;8.40;99.90;;;;;;4972518;28;20514;-73
2022/04/08 02:40:49;;;;;;;4.73;1.10;;;8.40;99.90;;;;;;4965210;28;20200;-73
2022/04/08 02:43:14;;;;;;;9.80;2.13;;;8.30;99.90;;;;;;4973536;28;20255;-72
2022/04/08 02:45:40;;;;;;;2.70;0.87;;;8.40;99.90;;;;;;4973587;28;20184;-72
2022/04/08 02:48:05;;;;;;;4.53;1.40;;;8.30;99.90;;;;;;4973460;28;20192;-72
2022/04/08 02:50:31;;;;;;;7.50;1.27;;;8.40;99.90;;;;;;4973782;28;20533;-72
2022/04/08 02:52:57;;;;;;;5.90;1.73;;;8.30;99.90;;;;;;4973598;28;20204;-72
2022/04/08 02:55:22;;;;;;;5.00;1.20;;;8.30;99.90;;;;;;4973647;28;20416;-72
2022/04/08 02:57:50;;;;;;;3.10;0.87;;;8.30;99.90;;;;;;4974467;28;20180;-72
2022/04/08 03:00:18;;;;;;;6.33;0.90;;;8.30;99.90;;;;;;4974013;28;20196;-72
2022/04/08 03:02:47;;;;;;;6.07;0.90;;;8.30;99.90;;;;;;4973334;28;20854;-72
2022/04/08 03:05:14;;;;;;;6.63;0.87;;;8.30;99.90;;;;;;4973267;28;20458;-73
2022/04/08 03:07:40;;;;;;;5.07;1.50;;;8.30;99.90;;;;;;4973472;28;20474;-73
2022/04/08 03:10:07;;;;;;;3.33;0.90;;;8.30;99.90;;;;;;4972008;28;20456;-72
2022/04/08 03:12:33;;;;;;;6.67;1.47;;;8.30;99.90;;;;;;4973102;28;20468;-72
2022/04/08 03:15:00;;;;;;;6.80;1.93;;;8.20;99.90;;;;;;4973324;28;20564;-72
2022/04/08 03:17:25;;;;;;;8.90;1.60;;;8.30;99.90;;;;;;4973128;28;20416;-72
2022/04/08 03:19:51;;;;;;;3.03;0.93;;;8.20;99.90;;;;;;4973140;28;20450;-72
2022/04/08 03:22:20;;;;;;;7.40;1.13;;;8.20;99.90;;;;;;4972877;28;20198;-73
2022/04/08 03:24:50;;;;;;;4.90;0.90;;;8.20;99.90;;;;;;4973173;28;20181;-73
2022/04/08 03:27:16;;;;;;;5.07;1.53;;;8.20;99.90;;;;;;4973004;28;20463;-74
2022/04/08 03:29:42;;;;;;;4.77;0.90;;;8.20;99.90;;;;;;4972845;28;20502;-73
2022/04/08 03:32:08;;;;;;;3.33;1.33;;;8.20;99.90;;;;;;4972430;28;20629;-73
2022/04/08 03:34:34;;;;;;;3.70;1.50;;;8.10;99.90;;;;;;4973124;28;20237;-73
2022/04/08 03:36:59;;;;;;;3.47;1.30;;;8.10;99.90;;;;;;4972430;28;20417;-73
2022/04/08 03:39:25;;;;;;;2.73;1.00;;;8.10;99.90;;;;;;4972709;28;20704;-73
2022/04/08 03:41:51;;;;;;;4.97;1.33;;;8.10;99.90;;;;;;4972759;28;20230;-73
2022/04/08 03:44:16;;;;;;;2.17;0.80;;;8.10;99.90;;;;;;4973078;28;20190;-73
2022/04/08 03:46:43;;;;;;;7.07;1.07;;;8.10;99.90;;;;;;4972966;28;20183;-73
2022/04/08 03:49:14;;;;;;;4.40;0.87;;;8.10;99.90;;;;;;4972673;28;20177;-74
2022/04/08 03:51:40;;;;;;;2.30;1.13;;;8.10;99.90;;;;;;4972379;28;20471;-73
2022/04/08 03:54:07;;;;;;;5.57;1.40;;;8.10;99.90;;;;;;4972596;28;20440;-74
2022/04/08 03:56:33;;;;;;;3.90;1.17;;;8.10;99.90;;;;;;4972636;28;20947;-73
2022/04/08 03:58:58;;;;;;;7.53;1.20;;;8.10;99.90;;;;;;4972777;28;20409;-73
2022/04/08 04:01:24;;;;;;;4.33;0.80;;;8.00;99.90;;;;;;4972104;28;20617;-73
2022/04/08 04:03:50;;;;;;;4.63;1.07;;;8.00;99.90;;;;;;4972793;28;20182;-73
2022/04/08 04:06:15;;;;;;;4.33;0.90;;;8.00;99.90;;;;;;4972627;28;20250;-73
2022/04/08 04:08:41;;;;;;;2.37;1.13;;;8.00;99.90;;;;;;4973042;28;20176;-73
2022/04/08 04:11:06;;;;;;;7.13;1.10;;;8.10;99.90;;;;;;4972459;28;20571;-73
2022/04/08 04:13:32;;;;;;;4.50;0.90;;;8.10;99.90;;;;;;4972655;28;20174;-73
2022/04/08 04:15:57;;;;;;;6.00;1.53;;;8.10;99.90;;;;;;4971340;28;20180;-73
2022/04/08 04:18:23;;;;;;;2.47;0.77;;;8.00;99.90;;;;;;4972711;28;20246;-73
2022/04/08 04:20:48;;;;;;;8.90;2.50;;;8.00;99.90;;;;;;4972678;28;20654;-73
2022/04/08 04:23:14;;;;;;;1.10;0.80;;;8.00;99.90;;;;;;4972357;28;20213;-74
2022/04/08 04:25:39;;;;;;;6.70;1.20;;;7.90;99.90;;;;;;4973211;28;20244;-73
2022/04/08 04:28:05;;;;;;;6.40;1.27;;;7.90;99.90;;;;;;4972385;28;20191;-73
2022/04/08 04:30:31;;;;;;;3.33;1.43;;;7.90;99.90;;;;;;4971930;28;20316;-73
2022/04/08 04:32:56;;;;;;;5.33;1.23;;;7.90;99.90;;;;;;4972207;28;20217;-73
2022/04/08 04:35:22;;;;;;;13.67;1.30;;;7.90;99.90;;;;;;4972137;28;20270;-73
2022/04/08 04:37:48;;;;;;;12.97;1.40;;;7.90;99.90;;;;;;4972341;28;20201;-73
2022/04/08 04:40:13;;;;;;;4.40;1.57;;;7.80;99.90;;;;;;4972206;28;20423;-72
2022/04/08 04:42:39;;;;;;;11.80;1.30;;;7.90;99.90;;;;;;4972193;28;20202;-73
2022/04/08 04:45:05;;;;;;;2.80;1.10;;;7.90;99.90;;;;;;4972453;28;20266;-72
2022/04/08 04:47:31;;;;;;;4.30;1.27;;;7.80;99.90;;;;;;4974173;28;20658;-73
2022/04/08 04:49:56;;;;;;;7.00;1.27;;;7.80;99.90;;;;;;4976071;28;20432;-73
2022/04/08 04:52:22;;;;;;;9.90;2.33;;;7.80;99.90;;;;;;4975603;28;20249;-73
2022/04/08 04:54:47;;;;;;;6.53;1.20;;;7.80;99.90;;;;;;4976091;28;20537;-72
2022/04/08 04:57:13;;;;;;;6.50;1.30;;;7.80;99.90;;;;;;4975695;28;20542;-73
2022/04/08 04:59:38;;;;;;;3.57;0.80;;;7.80;99.90;;;;;;4975487;28;20210;-75
2022/04/08 05:02:04;;;;;;;10.93;1.60;;;7.80;99.90;;;;;;4975344;28;20644;-75
2022/04/08 05:04:30;;;;;;;6.53;1.17;;;7.90;99.90;;;;;;4975287;28;20660;-74
2022/04/08 05:06:55;;;;;;;7.93;1.40;;;7.80;99.90;;;;;;4975901;28;20294;-74
2022/04/08 05:09:21;;;;;;;10.67;1.37;;;7.90;99.90;;;;;;4975129;28;20552;-75
2022/04/08 05:11:46;;;;;;;3.30;1.10;;;7.90;99.90;;;;;;4975112;28;20225;-74
2022/04/08 05:14:12;;;;;;;5.17;1.40;;;7.90;99.90;;;;;;4975150;28;20170;-74
2022/04/08 05:16:37;;;;;;;6.33;1.33;;;7.80;99.90;;;;;;4975388;28;20185;-74
2022/04/08 05:19:03;;;;;;;6.63;1.50;;;7.80;99.90;;;;;;4975184;28;20189;-74
2022/04/08 05:21:29;;;;;;;5.10;1.00;;;7.90;99.90;;;;;;4970751;28;20209;-75
2022/04/08 05:23:55;;;;;;;5.33;1.00;;;7.90;99.90;;;;;;4965020;28;20569;-74
2022/04/08 05:26:21;;;;;;;8.43;1.60;;;7.90;99.90;;;;;;4973809;28;20424;-74
2022/04/08 05:28:46;;;;;;;4.17;1.00;;;8.00;99.90;;;;;;4965871;28;20565;-74
2022/04/08 05:31:12;;;;;;;5.43;1.10;;;8.00;99.90;;;;;;4960355;28;20711;-74
2022/04/08 05:33:38;;;;;;;5.60;0.93;;;8.00;99.90;;;;;;4973282;28;20386;-75
2022/04/08 05:36:04;;;;;;;3.47;1.00;;;8.10;99.90;;;;;;4974449;28;20175;-74
2022/04/08 05:38:29;;;;;;;5.57;1.33;;;8.10;99.90;;;;;;4973861;28;20189;-74
2022/04/08 05:40:55;;;;;;;6.30;2.73;;;8.10;99.90;;;;;;4973554;28;20199;-74
2022/04/08 05:43:20;;;;;;;3.63;1.73;;;8.10;99.90;;;;;;4974611;28;20268;-75
2022/04/08 05:45:46;;;;;;;7.03;1.20;;;8.10;99.90;;;;;;4973507;28;20190;-74
2022/04/08 05:48:11;;;;;;;2.80;0.90;;;8.20;99.90;;;;;;4974742;28;20267;-74
2022/04/08 05:50:37;;;;;;;9.07;1.60;;;8.20;99.90;;;;;;4974270;28;20218;-74
2022/04/08 05:53:03;;;;;;;7.03;1.00;;;8.20;99.90;;;;;;4974681;28;20191;-75
2022/04/08 05:55:29;;;;;;;3.67;1.17;;;8.20;99.90;;;;;;4974348;28;20241;-75
2022/04/08 05:57:56;;;;;;;4.67;1.13;;;8.20;99.90;;;;;;4974860;28;20785;-75
2022/04/08 06:00:23;;;;;;;6.23;1.47;;;8.30;99.90;;;;;;4973738;28;20265;-74
2022/04/08 06:02:49;;;;;;;10.07;1.30;;;8.30;99.90;;;;;;4977987;28;20469;-74
2022/04/08 06:05:19;;;;;;;11.77;1.10;;;8.30;99.90;;;;;;4975391;28;20427;-75
2022/04/08 06:07:51;;;;;;;6.67;1.27;;;8.30;99.90;;;;;;4975999;28;20468;-74
2022/04/08 06:10:28;;;;;;;;;;;;;;;;;;;;;
2022/04/08 06:12:57;;;;;;;7.30;1.40;;;8.40;99.90;;;;;;4977255;28;20463;-74
2022/04/08 06:15:25;;;;;;;4.73;0.93;;;8.30;99.90;;;;;;4979814;28;20441;-74
2022/04/08 06:17:52;;;;;;;3.63;1.10;;;8.30;99.90;;;;;;4979694;28;20861;-73
2022/04/08 06:20:18;;;;;;;2.90;1.20;;;8.20;99.90;;;;;;4979018;28;20445;-74
2022/04/08 06:22:45;;;;;;;3.77;0.90;;;8.20;99.90;;;;;;4977305;28;20433;-75
2022/04/08 06:25:16;;;;;;;3.73;1.00;;;8.10;99.90;;;;;;4977879;28;20460;-75
2022/04/08 06:27:44;;;;;;;1.90;0.70;;;8.10;99.90;;;;;;4975634;28;20446;-75
2022/04/08 06:30:12;;;;;;;2.83;0.80;;;8.10;99.90;;;;;;4976053;28;20417;-75
2022/04/08 06:32:38;;;;;;;6.33;1.00;;;8.00;99.90;;;;;;4972907;28;20535;-76
2022/04/08 06:35:05;;;;;;;3.60;1.00;;;8.00;99.90;;;;;;4973973;28;20421;-75
2022/04/08 06:37:30;;;;;;;5.00;1.13;;;8.00;99.90;;;;;;4973729;28;20418;-74
2022/04/08 06:40:01;;;;;;;4.70;0.80;;;8.10;99.90;;;;;;4973879;28;20569;-75
2022/04/08 06:42:26;;;;;;;1.60;0.77;;;8.10;99.90;;;;;;4973369;28;20206;-75
2022/04/08 06:44:52;;;;;;;3.13;0.77;;;8.20;99.90;;;;;;4974077;28;20936;-75
2022/04/08 06:47:17;;;;;;;1.87;0.97;;;8.20;99.90;;;;;;4973732;28;20189;-75
2022/04/08 06:49:46;;;;;;;5.90;1.30;;;8.30;99.90;;;;;;4974255;28;20188;-75
2022/04/08 06:52:12;;;;;;;7.80;1.27;;;8.20;99.90;;;;;;4973536;28;20741;-75
2022/04/08 06:54:38;;;;;;;1.83;0.90;;;8.20;99.90;;;;;;4973335;28;20830;-72
2022/04/08 06:57:04;;;;;;;3.57;1.00;;;8.20;99.90;;;;;;4973503;28;20408;-73
2022/04/08 06:59:29;;;;;;;1.63;0.60;;;8.20;99.90;;;;;;4973441;28;20262;-73
2022/04/08 07:01:55;;;;;;;7.03;1.00;;;8.20;99.90;;;;;;4973074;28;20745;-73
2022/04/08 07:04:20;;;;;;;3.50;0.73;;;8.10;99.90;;;;;;4973190;28;20673;-72
2022/04/08 07:06:46;;;;;;;2.10;1.00;;;8.10;99.90;;;;;;4973287;28;20780;-72
2022/04/08 07:09:11;;;;;;;4.17;0.80;;;8.20;99.90;;;;;;4973323;28;20201;-72
2022/04/08 07:11:37;;;;;;;3.67;1.10;;;8.10;99.90;;;;;;4955591;28;20210;-72
2022/04/08 07:14:04;;;;;;;6.53;1.43;;;8.10;99.90;;;;;;4954536;29;20201;-74
2022/04/08 07:16:29;;;;;;;2.23;0.70;;;8.00;99.90;;;;;;4953730;28;20178;-73
2022/04/08 07:18:55;;;;;;;4.40;1.20;;;7.90;99.90;;;;;;4953843;29;21061;-73
2022/04/08 07:21:22;;;;;;;1.50;1.10;;;7.80;99.90;;;;;;4953750;29;20280;-72
2022/04/08 07:23:48;;;;;;;1.23;0.93;;;7.70;99.90;;;;;;4953772;29;20269;-72
2022/04/08 07:26:13;;;;;;;5.73;1.03;;;7.60;99.90;;;;;;4953750;29;20522;-72
2022/04/08 07:28:39;;;;;;;3.10;0.73;;;7.60;99.90;;;;;;4953652;28;20715;-73
2022/04/08 07:31:04;;;;;;;5.10;1.27;;;7.60;99.90;;;;;;4953395;28;20272;-75
2022/04/08 07:33:30;;;;;;;2.00;0.70;;;7.50;99.90;;;;;;4954228;29;20674;-75
2022/04/08 07:35:58;;;;;;;4.03;0.80;;;7.50;99.90;;;;;;4954662;29;20182;-75
2022/04/08 07:38:24;;;;;;;2.63;0.77;;;7.60;99.90;;;;;;4955588;28;20173;-75
2022/04/08 07:40:50;;;;;;;1.87;0.97;;;7.40;99.90;;;;;;4953182;29;20453;-75
2022/04/08 07:43:16;;;;;;;1.70;0.70;;;7.40;99.90;;;;;;4953547;29;20409;-75
2022/04/08 07:45:42;;;;;;;1.73;1.20;;;7.30;99.90;;;;;;4953437;29;20174;-75
2022/04/08 07:48:08;;;;;;;2.10;0.80;;;7.30;99.90;;;;;;4953817;28;20413;-75
2022/04/08 07:50:37;;;;;;;3.47;0.70;;;7.30;99.90;;;;;;4953109;29;20779;-76
2022/04/08 07:53:02;;;;;;;8.80;1.03;;;7.40;99.90;;;;;;4953461;28;20204;-75
2022/04/08 07:55:29;;;;;;;3.30;0.70;;;7.40;99.90;;;;;;4953385;28;20919;-75
2022/04/08 07:57:54;;;;;;;1.70;1.07;;;7.40;99.90;;;;;;4953407;29;20229;-75
2022/04/08 08:00:25;;;;;;;3.27;0.80;;;7.50;99.90;;;;;;4953388;29;20429;-75
2022/04/08 08:02:51;;;;;;;3.00;0.97;;;7.50;99.90;;;;;;4953094;29;20197;-75
2022/04/08 08:05:17;;;;;;;0.60;0.60;;;7.60;99.90;;;;;;4953397;29;20949;-75
2022/04/08 08:07:51;;;;;;;2.17;0.80;;;7.70;99.90;;;;;;4953207;29;20719;-75
2022/04/08 08:10:22;;;;;;;2.87;0.77;;;7.80;99.90;;;;;;4952130;29;20837;-75
2022/04/08 08:12:48;;;;;;;3.60;0.60;;;7.90;99.90;;;;;;4952843;28;20465;-75
2022/04/08 08:15:15;;;;;;;2.40;0.60;;;8.00;99.90;;;;;;4953056;29;20437;-75
2022/04/08 08:17:41;;;;;;;1.00;0.67;;;7.90;99.90;;;;;;4953278;29;20415;-75
2022/04/08 08:20:08;;;;;;;1.30;1.00;;;7.90;99.90;;;;;;4951711;29;20452;-75
2022/04/08 08:22:34;;;;;;;2.47;0.70;;;7.90;99.90;;;;;;4954928;28;20442;-74
2022/04/08 08:25:00;;;;;;;2.20;0.57;;;7.80;99.90;;;;;;4957043;28;20429;-75
2022/04/08 08:27:26;;;;;;;3.90;0.80;;;7.80;99.90;;;;;;4956837;29;20957;-74
2022/04/08 08:29:51;;;;;;;1.90;0.80;;;7.80;99.90;;;;;;4956954;29;20181;-74
2022/04/08 08:32:17;;;;;;;6.70;0.77;;;7.80;99.90;;;;;;4955953;29;20649;-74
2022/04/08 08:34:42;;;;;;;2.10;0.90;;;7.90;99.90;;;;;;4956574;28;20182;-73
2022/04/08 08:37:08;;;;;;;1.90;0.70;;;7.90;99.90;;;;;;4956750;29;20187;-74
2022/04/08 08:39:33;;;;;;;2.20;0.80;;;7.90;99.90;;;;;;4956577;29;20176;-74
2022/04/08 08:41:59;;;;;;;2.90;0.70;;;8.00;99.90;;;;;;4956509;28;20224;-74
2022/04/08 08:44:25;;;;;;;1.37;0.60;;;7.90;99.90;;;;;;4956511;28;20182;-74
2022/04/08 08:46:52;;;;;;;2.63;0.70;;;7.90;99.90;;;;;;4956477;29;20190;-74
2022/04/08 08:49:19;;;;;;;1.87;0.60;;;8.00;99.90;;;;;;4956413;29;20179;-73
2022/04/08 08:51:55;;;;;;;7.00;0.77;;;8.00;99.90;;;;;;4955851;29;20473;-73
2022/04/08 08:54:21;;;;;;;0.70;0.50;;;7.80;99.90;;;;;;4955174;29;20847;-74
2022/04/08 08:56:46;;;;;;;1.13;0.50;;;7.80;99.90;;;;;;4956244;28;20392;-73
2022/04/08 08:59:12;;;;;;;1.47;0.70;;;7.90;99.90;;;;;;4956484;29;20534;-73
2022/04/08 09:01:37;;;;;;;2.50;0.70;;;8.00;99.90;;;;;;4955831;29;20290;-74
2022/04/08 09:04:03;;;;;;;2.40;0.50;;;8.00;99.90;;;;;;4956445;29;20185;-75
2022/04/08 09:06:40;;;;;;;0.97;0.80;;;8.10;99.90;;;;;;4956044;29;20217;-75
2022/04/08 09:09:06;;;;;;;1.00;0.60;;;8.10;99.90;;;;;;4956407;29;20176;-75
2022/04/08 09:11:31;;;;;;;2.77;1.47;;;8.10;99.90;;;;;;4955796;28;21056;-73
2022/04/08 09:14:02;;;;;;;3.60;0.80;;;8.10;99.90;;;;;;4956401;29;20211;-73
2022/04/08 09:16:29;;;;;;;2.70;0.90;;;8.20;99.90;;;;;;4954953;28;20176;-73
2022/04/08 09:18:55;;;;;;;1.70;0.50;;;8.20;99.90;;;;;;4956497;29;20439;-73
2022/04/08 09:21:25;;;;;;;0.77;0.50;;;8.20;99.90;;;;;;4956243;28;20454;-74
2022/04/08 09:23:51;;;;;;;1.10;0.60;;;8.10;99.90;;;;;;4974827;28;20509;-73
2022/04/08 09:26:16;;;;;;;1.73;0.70;;;8.10;99.90;;;;;;4975076;28;20914;-71
2022/04/08 09:28:42;;;;;;;3.30;1.00;;;8.00;99.90;;;;;;4974916;28;20192;-72
2022/04/08 09:31:21;;;;;;;0.93;0.60;;;8.10;99.90;;;;;;4974266;28;20309;-73
2022/04/08 09:33:52;;;;;;;0.80;0.70;;;8.10;99.90;;;;;;4974022;28;20586;-73
2022/04/08 09:36:32;;;;;;;1.00;0.67;;;8.10;99.90;;;;;;4974983;28;20432;-73
2022/04/08 09:38:58;;;;;;;1.03;0.60;;;8.00;99.90;;;;;;4974963;28;20826;-73
2022/04/08 09:41:56;;;;;;;1.80;0.70;;;8.10;99.90;;;;;;4974797;28;20469;-73
2022/04/08 09:44:24;;;;;;;1.47;0.60;;;8.00;99.90;;;;;;4962791;28;20464;-73
2022/04/08 09:46:50;;;;;;;2.93;0.80;;;7.90;99.90;;;;;;4975099;28;20421;-73
2022/04/08 09:49:15;;;;;;;2.93;0.63;;;7.70;99.90;;;;;;4974730;28;20428;-74
2022/04/08 09:51:41;;;;;;;1.37;0.60;;;7.70;99.90;;;;;;4974521;28;21044;-74
2022/04/08 09:54:12;;;;;;;0.50;0.50;;;7.80;99.90;;;;;;4974720;28;20182;-73
2022/04/08 09:56:38;;;;;;;1.17;0.77;;;7.80;99.90;;;;;;4974842;28;20531;-74
2022/04/08 09:59:06;;;;;;;2.40;0.60;;;7.80;99.90;;;;;;4974592;28;20759;-73
2022/04/08 10:01:33;;;;;;;3.00;0.70;;;7.80;99.90;;;;;;4974375;28;20437;-74
2022/04/08 10:04:01;;;;;;;1.03;0.60;;;7.80;99.90;;;;;;4973315;28;20474;-74
2022/04/08 10:06:27;;;;;;;1.17;0.70;;;7.70;99.90;;;;;;4974194;28;20477;-74
2022/04/08 10:08:53;;;;;;;0.70;0.70;;;7.70;99.90;;;;;;4973116;28;20447;-74
2022/04/08 10:11:28;;;;;;;2.40;0.60;;;7.70;99.90;;;;;;4973860;28;20464;-74
2022/04/08 10:14:23;;;;;;;0.70;0.67;;;7.60;99.90;;;;;;4974476;28;20175;-73
2022/04/08 10:16:52;;;;;;;1.63;0.50;;;7.60;99.90;;;;;;4972983;28;20412;-74
2022/04/08 10:19:19;;;;;;;0.50;0.40;;;7.50;99.90;;;;;;4974347;28;20959;-73
2022/04/08 10:21:52;;;;;;;1.77;1.00;;;7.40;99.90;;;;;;4972592;28;20900;-74
2022/04/08 10:24:23;;;;;;;1.20;1.10;;;7.50;99.90;;;;;;4974588;28;20554;-74
2022/04/08 10:26:56;;;;;;;1.27;0.60;;;7.50;99.90;;;;;;4974353;28;20506;-73
2022/04/08 10:29:22;;;;;;;0.97;0.50;;;7.50;99.90;;;;;;4972642;28;20415;-74
2022/04/08 10:32:17;;;;;;;0.40;0.40;;;7.60;99.90;;;;;;4966388;28;20507;-73
2022/04/08 10:34:42;;;;;;;0.50;0.50;;;7.70;99.90;;;;;;4957842;28;20201;-74
2022/04/08 10:37:23;;;;;;;0.50;0.50;;;7.70;99.90;;;;;;4981409;28;20429;-74
2022/04/08 10:40:01;;;;;;;1.53;0.50;;;7.80;99.90;;;;;;4973800;28;20231;-73
2022/04/08 10:42:28;;;;;;;0.50;0.50;;;7.70;99.90;;;;;;4973422;28;20459;-74
2022/04/08 10:44:54;;;;;;;1.13;0.77;;;7.70;99.90;;;;;;4973625;28;20416;-74
2022/04/08 10:47:21;;;;;;;0.60;0.50;;;7.80;99.90;;;;;;4973488;28;20424;-74
2022/04/08 10:50:01;;;;;;;0.93;0.50;;;7.90;99.90;;;;;;4973658;28;20414;-73
2022/04/08 10:52:29;;;;;;;1.83;0.50;;;8.00;99.90;;;;;;4972854;28;20608;-74
2022/04/08 10:55:10;;;;;;;1.57;0.50;;;8.00;99.90;;;;;;4973591;28;20447;-73
2022/04/08 10:57:37;;;;;;;0.50;0.50;;;8.10;99.90;;;;;;4974421;28;20416;-74
2022/04/08 11:00:08;;;;;;;2.20;0.60;;;8.20;99.90;;;;;;4974525;28;20421;-73
2022/04/08 11:02:36;;;;;;;1.30;0.50;;;8.20;99.90;;;;;;4974049;28;20447;-73
2022/04/08 11:05:04;;;;;;;0.70;0.70;;;8.20;99.90;;;;;;4973783;28;20412;-74
2022/04/08 11:07:31;;;;;;;0.60;0.60;;;8.10;99.90;;;;;;4974001;28;20482;-74
2022/04/08 11:09:57;;;;;;;0.73;0.67;;;8.10;99.90;;;;;;4974505;28;20435;-74
2022/04/08 11:12:23;;;;;;;1.33;0.40;;;8.00;99.90;;;;;;4973256;28;20473;-74
2022/04/08 11:14:57;;;;;;;0.63;0.60;;;7.90;99.90;;;;;;4972000;28;20183;-73
2022/04/08 11:17:23;;;;;;;3.17;0.70;;;7.80;99.90;;;;;;4973501;28;20666;-74
2022/04/08 11:19:50;;;;;;;1.50;0.60;;;7.80;99.90;;;;;;4973421;28;20456;-73
2022/04/08 11:22:15;;;;;;;0.70;0.60;;;7.80;99.90;;;;;;4971370;28;20464;-74
2022/04/08 11:24:41;;;;;;;2.03;0.83;;;7.80;99.90;;;;;;4973087;28;20456;-74
2022/04/08 11:27:08;;;;;;;0.50;0.50;;;7.80;99.90;;;;;;4973024;28;20176;-73
2022/04/08 11:29:36;;;;;;;1.73;0.70;;;7.90;99.90;;;;;;4972724;28;20219;-73
2022/04/08 11:32:11;;;;;;;3.83;0.73;;;7.90;99.90;;;;;;4972415;28;20561;-74
2022/04/08 11:34:37;;;;;;;2.73;0.73;;;7.90;99.90;;;;;;4972934;28;20494;-74
2022/04/08 11:37:03;;;;;;;1.67;0.80;;;7.80;99.90;;;;;;4972851;28;20415;-74
2022/04/08 11:39:30;;;;;;;1.27;0.67;;;7.80;99.90;;;;;;4972685;28;20437;-74
2022/04/08 11:41:57;;;;;;;1.97;0.53;;;7.90;99.90;;;;;;4972538;28;20218;-73
2022/04/08 11:44:24;;;;;;;0.70;0.60;;;7.90;99.90;;;;;;4972536;28;20759;-74
2022/04/08 11:46:50;;;;;;;3.03;1.17;;;7.90;99.90;;;;;;4972799;28;20426;-73
2022/04/08 11:49:17;;;;;;;0.97;0.70;;;7.90;99.90;;;;;;4972609;28;20436;-74
2022/04/08 11:51:42;;;;;;;1.80;0.50;;;7.90;99.90;;;;;;4972469;28;20469;-73
2022/04/08 11:54:08;;;;;;;1.00;0.67;;;7.80;99.90;;;;;;4972589;28;20441;-73
2022/04/08 11:56:33;;;;;;;0.90;0.90;;;7.70;99.90;;;;;;4972066;28;20179;-73
2022/04/08 11:59:08;;;;;;;2.50;0.70;;;7.70;99.90;;;;;;4958897;28;20252;-73
2022/04/08 12:01:39;;;;;;;1.20;1.10;;;7.70;99.90;;;;;;4971144;28;20217;-73
2022/04/08 12:04:11;;;;;;;0.70;0.70;;;7.70;99.90;;;;;;4971524;28;21060;-73
2022/04/08 12:06:46;;;;;;;1.50;0.80;;;7.70;99.90;;;;;;4971525;28;20457;-73
2022/04/08 12:09:14;;;;;;;4.10;0.70;;;7.70;99.90;;;;;;4970914;28;20519;-73
2022/04/08 12:11:42;;;;;;;1.80;1.00;;;7.60;99.90;;;;;;4971067;28;20479;-74
2022/04/08 12:14:09;;;;;;;0.87;0.80;;;7.50;99.90;;;;;;4969973;28;20473;-73
2022/04/08 12:16:39;;;;;;;1.90;0.83;;;7.40;99.90;;;;;;4971607;28;20469;-74
2022/04/08 12:19:06;;;;;;;1.87;0.70;;;7.40;99.90;;;;;;4971501;28;20844;-74
2022/04/08 12:21:33;;;;;;;1.23;1.13;;;7.30;99.90;;;;;;4971190;28;20448;-73
2022/04/08 12:24:00;;;;;;;2.47;1.20;;;7.30;99.90;;;;;;4971373;28;20879;-74
2022/04/08 12:26:31;;;;;;;1.63;1.53;;;7.30;99.90;;;;;;4971526;28;20812;-74
2022/04/08 12:29:07;;;;;;;2.07;1.57;;;7.20;99.90;;;;;;4972829;28;20413;-74
2022/04/08 12:31:34;;;;;;;1.43;1.33;;;7.30;99.90;;;;;;4974928;28;20500;-74
2022/04/08 12:34:02;;;;;;;1.43;1.37;;;7.20;99.90;;;;;;4974567;28;20420;-73
2022/04/08 12:36:28;;;;;;;2.03;1.63;;;7.10;99.90;;;;;;4972105;28;20503;-73
2022/04/08 12:38:53;;;;;;;1.63;1.50;;;7.10;99.90;;;;;;4972288;28;20484;-73
2022/04/08 12:41:19;;;;;;;2.87;1.83;;;6.90;99.90;;;;;;4970957;28;20193;-73
2022/04/08 12:43:44;;;;;;;2.00;1.60;;;6.80;99.90;;;;;;4972403;28;20189;-74
2022/04/08 12:46:10;;;;;;;2.27;1.70;;;6.90;99.90;;;;;;4972108;28;20550;-73
2022/04/08 12:48:35;;;;;;;2.60;1.33;;;6.60;99.90;;;;;;4972264;28;20545;-74
2022/04/08 12:51:02;;;;;;;1.90;1.80;;;6.60;99.90;;;;;;4971858;28;20283;-74
2022/04/08 12:53:30;;;;;;;2.50;1.77;;;6.80;99.90;;;;;;4971965;28;20174;-73
2022/04/08 12:55:56;;;;;;;1.63;1.53;;;6.80;99.90;;;;;;4972216;28;20411;-74
2022/04/08 12:58:22;;;;;;;3.13;2.07;;;7.00;99.90;;;;;;4972039;28;20812;-73
2022/04/08 13:00:48;;;;;;;1.47;1.37;;;7.00;99.90;;;;;;4971905;28;20424;-74
2022/04/08 13:03:14;;;;;;;1.37;1.30;;;7.00;99.90;;;;;;4971895;28;20646;-74
2022/04/08 13:05:40;;;;;;;1.10;1.00;;;6.90;99.90;;;;;;4972466;28;20433;-74
2022/04/08 13:08:05;;;;;;;1.27;0.80;;;6.90;99.90;;;;;;4971955;28;20184;-73
2022/04/08 13:10:31;;;;;;;1.30;0.90;;;6.90;99.90;;;;;;4974698;28;20186;-73
2022/04/08 13:12:56;;;;;;;1.53;1.20;;;6.80;99.90;;;;;;4975590;28;20728;-74
2022/04/08 13:15:22;;;;;;;1.77;1.23;;;6.80;99.90;;;;;;4974795;28;20623;-73
2022/04/08 13:17:47;;;;;;;2.17;1.97;;;6.80;99.90;;;;;;4977656;28;20238;-74
2022/04/08 13:20:13;;;;;;;1.97;1.87;;;6.80;99.90;;;;;;4974979;28;20224;-73
2022/04/08 13:22:38;;;;;;;5.63;1.93;;;6.80;99.90;;;;;;4974937;28;20251;-74
2022/04/08 13:25:05;;;;;;;3.40;2.90;;;6.80;99.90;;;;;;4975383;28;20621;-74
2022/04/08 13:27:30;;;;;;;4.87;1.20;;;6.80;99.90;;;;;;4975048;28;20180;-74
2022/04/08 13:29:56;;;;;;;4.97;1.70;;;6.70;99.90;;;;;;4975132;28;20422;-74
2022/04/08 13:32:22;;;;;;;2.37;1.67;;;6.70;99.90;;;;;;4974690;28;20593;-74
2022/04/08 13:34:48;;;;;;;1.40;1.30;;;6.80;99.90;;;;;;4975168;28;20494;-74
2022/04/08 13:37:13;;;;;;;1.67;1.57;;;6.80;99.90;;;;;;4974848;28;20423;-74
2022/04/08 13:39:40;;;;;;;1.77;1.67;;;6.80;99.90;;;;;;4975166;28;20169;-74
2022/04/08 13:42:06;;;;;;;2.03;1.50;;;6.80;99.90;;;;;;4974905;28;20203;-73
2022/04/08 13:44:33;;;;;;;3.07;1.63;;;6.80;99.90;;;;;;4974807;28;20886;-74
2022/04/08 13:46:59;;;;;;;2.27;2.17;;;6.70;99.90;;;;;;4974997;28;20415;-74
2022/04/08 13:49:25;;;;;;;6.50;3.30;;;6.70;99.90;;;;;;4974640;28;20460;-74
2022/04/08 13:51:51;;;;;;;5.47;2.90;;;6.60;99.90;;;;;;4973209;28;20506;-74
2022/04/08 13:54:17;;;;;;;7.77;3.03;;;6.60;99.90;;;;;;4974591;28;20176;-74
2022/04/08 13:56:43;;;;;;;3.30;3.10;;;6.60;99.90;;;;;;4974665;28;20642;-74
2022/04/08 13:59:08;;;;;;;3.07;2.90;;;6.60;99.90;;;;;;4974507;28;20411;-73
2022/04/08 14:01:34;;;;;;;3.63;3.30;;;6.60;99.90;;;;;;4973022;28;20687;-74
2022/04/08 14:04:00;;;;;;;2.90;2.60;;;6.60;99.90;;;;;;4974637;28;20206;-74
2022/04/08 14:06:26;;;;;;;3.83;3.47;;;6.60;99.90;;;;;;4974274;28;20281;-74
2022/04/08 14:08:52;;;;;;;3.87;3.33;;;6.60;99.90;;;;;;4974665;28;20183;-75
2022/04/08 14:11:18;;;;;;;4.63;3.23;;;6.70;99.90;;;;;;4973831;28;20456;-74
2022/04/08 14:13:43;;;;;;;3.33;3.13;;;6.80;99.90;;;;;;4974674;28;20425;-74
2022/04/08 14:16:09;;;;;;;4.30;3.90;;;6.70;99.90;;;;;;4974187;28;20182;-73
2022/04/08 14:18:35;;;;;;;5.30;3.87;;;6.80;99.90;;;;;;4974346;28;20653;-74
2022/04/08 14:21:02;;;;;;;5.70;4.20;;;6.90;99.90;;;;;;4973299;28;20274;-74
2022/04/08 14:23:28;;;;;;;4.13;3.83;;;7.10;99.90;;;;;;4974290;28;20206;-74
2022/04/08 14:25:53;;;;;;;5.80;3.47;;;7.20;99.90;;;;;;4974171;28;20836;-73
2022/04/08 14:28:19;;;;;;;4.13;3.83;;;7.20;99.90;;;;;;4973955;28;20592;-74